Time;durP1;ratioP1;P1;durP2;ratioP2;P2;SDS_P1;SDS_P2;PMS_P1;PMS_P2;Temp;Humidity;BMP_temperature;BMP_pressure;BME280_temperature;BME280_humidity;BME280_pressure;Samples;Min_cycle;Max_cycle;Signal;HPM_P1;HPM_P2
2021/08/04 00:02:20;;;;;;;12.30;5.97;;;17.00;99.90;;;;;;5102643;28;20461;-82
2021/08/04 00:04:47;;;;;;;11.27;5.50;;;17.00;99.90;;;;;;5102702;28;20514;-84
2021/08/04 00:07:13;;;;;;;10.20;5.30;;;17.00;99.90;;;;;;5091371;28;20554;-84
2021/08/04 00:09:40;;;;;;;12.13;5.80;;;17.00;99.90;;;;;;5082280;28;20451;-85
2021/08/04 00:12:08;;;;;;;11.23;5.30;;;17.00;99.90;;;;;;5082488;28;20534;-83
2021/08/04 00:14:34;;;;;;;10.57;5.50;;;17.00;99.90;;;;;;5082309;28;20463;-86
2021/08/04 00:17:01;;;;;;;13.47;5.60;;;17.00;99.90;;;;;;5082122;28;20468;-86
2021/08/04 00:19:30;;;;;;;10.77;5.27;;;17.00;99.90;;;;;;5082111;28;20455;-83
2021/08/04 00:21:56;;;;;;;11.20;5.10;;;17.00;99.90;;;;;;5082088;28;20448;-85
2021/08/04 00:24:23;;;;;;;10.40;4.80;;;17.00;99.90;;;;;;5082135;28;20555;-84
2021/08/04 00:26:50;;;;;;;10.20;4.83;;;17.00;99.90;;;;;;5081549;28;20582;-84
2021/08/04 00:29:17;;;;;;;10.50;4.53;;;17.00;99.90;;;;;;5081911;28;20530;-85
2021/08/04 00:31:44;;;;;;;12.83;5.60;;;17.00;99.90;;;;;;5082112;28;20587;-81
2021/08/04 00:34:11;;;;;;;10.70;5.10;;;17.10;99.90;;;;;;5082072;28;20451;-84
2021/08/04 00:36:39;;;;;;;11.90;5.60;;;17.00;99.90;;;;;;5087607;28;20462;-84
2021/08/04 00:39:06;;;;;;;9.40;4.63;;;17.00;99.90;;;;;;5099856;28;20451;-83
2021/08/04 00:41:37;;;;;;;10.57;4.50;;;17.00;99.90;;;;;;5099916;28;20522;-83
2021/08/04 00:44:04;;;;;;;11.40;5.43;;;17.00;99.90;;;;;;5100172;28;20460;-82
2021/08/04 00:46:31;;;;;;;10.17;4.77;;;17.00;99.90;;;;;;5099618;28;20484;-83
2021/08/04 00:48:59;;;;;;;10.50;5.03;;;17.00;99.90;;;;;;5100797;28;20442;-83
2021/08/04 00:51:26;;;;;;;10.93;5.20;;;17.00;99.90;;;;;;5101695;28;20442;-84
2021/08/04 00:53:54;;;;;;;9.90;4.90;;;17.00;99.90;;;;;;5100659;28;20534;-83
2021/08/04 00:56:21;;;;;;;10.43;5.20;;;17.00;99.90;;;;;;5100475;28;20463;-83
2021/08/04 00:58:48;;;;;;;12.13;6.37;;;17.00;99.90;;;;;;5080764;28;20861;-84
2021/08/04 01:01:20;;;;;;;10.10;4.70;;;17.00;99.90;;;;;;5080602;28;20454;-84
2021/08/04 01:03:51;;;;;;;9.97;4.63;;;17.00;99.90;;;;;;5085121;28;20451;-84
2021/08/04 01:06:28;;;;;;;10.00;5.10;;;17.00;99.90;;;;;;5085541;28;20554;-84
2021/08/04 01:08:58;;;;;;;9.80;4.90;;;17.00;99.90;;;;;;5105431;28;20455;-83
2021/08/04 01:11:32;;;;;;;9.60;4.73;;;17.10;99.90;;;;;;5104910;28;20485;-83
2021/08/04 01:14:02;;;;;;;10.23;5.50;;;17.00;99.90;;;;;;5102004;28;20439;-85
2021/08/04 01:16:32;;;;;;;10.77;4.90;;;17.10;99.90;;;;;;5101975;28;20480;-84
2021/08/04 01:19:10;;;;;;;10.53;5.27;;;17.10;99.90;;;;;;5103764;28;20545;-84
2021/08/04 01:21:40;;;;;;;11.67;5.43;;;17.10;99.90;;;;;;5102155;28;20454;-84
2021/08/04 01:24:16;;;;;;;13.13;5.00;;;17.10;99.90;;;;;;5086162;28;20452;-84
2021/08/04 01:26:46;;;;;;;12.10;5.10;;;17.00;99.90;;;;;;5080674;28;20506;-82
2021/08/04 01:29:15;;;;;;;11.37;6.30;;;17.10;99.90;;;;;;5078428;28;20460;-83
2021/08/04 01:31:45;;;;;;;11.03;4.70;;;17.00;99.90;;;;;;5078026;28;20462;-82
2021/08/04 01:34:13;;;;;;;10.07;4.90;;;17.00;99.90;;;;;;5089838;28;20455;-82
2021/08/04 01:36:40;;;;;;;10.63;5.13;;;17.00;99.90;;;;;;5098394;28;20673;-83
2021/08/04 01:39:09;;;;;;;14.33;5.73;;;17.00;99.90;;;;;;5099191;28;20536;-82
2021/08/04 01:41:37;;;;;;;11.43;5.73;;;17.00;99.90;;;;;;5099079;28;20446;-83
2021/08/04 01:44:07;;;;;;;9.40;5.20;;;16.90;99.90;;;;;;5098006;28;20453;-83
2021/08/04 01:46:35;;;;;;;12.47;6.23;;;16.90;99.90;;;;;;5097889;28;21178;-83
2021/08/04 01:49:04;;;;;;;10.10;5.20;;;16.90;99.90;;;;;;5097457;28;20460;-84
2021/08/04 01:51:32;;;;;;;11.33;5.70;;;16.90;99.90;;;;;;5097710;28;20454;-82
2021/08/04 01:54:00;;;;;;;12.27;5.43;;;16.90;99.90;;;;;;5097621;28;20457;-83
2021/08/04 01:56:27;;;;;;;10.40;5.23;;;16.80;99.90;;;;;;5096786;28;20470;-84
2021/08/04 01:58:54;;;;;;;9.90;5.40;;;16.90;99.90;;;;;;5098959;28;20448;-83
2021/08/04 02:01:25;;;;;;;9.37;4.33;;;16.90;99.90;;;;;;5101848;28;20542;-84
2021/08/04 02:03:52;;;;;;;10.27;5.10;;;16.90;99.90;;;;;;5096425;28;20450;-83
2021/08/04 02:06:27;;;;;;;9.87;4.87;;;16.80;99.90;;;;;;5099201;28;20503;-82
2021/08/04 02:08:59;;;;;;;10.40;4.63;;;16.80;99.90;;;;;;5101658;28;20460;-84
2021/08/04 02:11:38;;;;;;;10.67;5.47;;;16.80;99.90;;;;;;5107611;28;20448;-85
2021/08/04 02:14:09;;;;;;;10.27;5.10;;;16.80;99.90;;;;;;5097259;28;20517;-83
2021/08/04 02:16:43;;;;;;;10.60;5.47;;;16.80;99.90;;;;;;5089923;28;20462;-84
2021/08/04 02:19:13;;;;;;;10.30;4.70;;;16.80;99.90;;;;;;5083572;28;20450;-83
2021/08/04 02:21:43;;;;;;;8.97;4.70;;;16.80;99.90;;;;;;5083741;28;20981;-83
2021/08/04 02:24:12;;;;;;;10.33;5.17;;;16.70;99.90;;;;;;5084018;28;20458;-82
2021/08/04 02:26:40;;;;;;;9.80;5.43;;;16.70;99.90;;;;;;5084850;28;20507;-83
2021/08/04 02:29:08;;;;;;;9.30;4.70;;;16.70;99.90;;;;;;5083758;28;20456;-83
2021/08/04 02:31:37;;;;;;;11.77;4.77;;;16.70;99.90;;;;;;5083572;28;20457;-86
2021/08/04 02:34:05;;;;;;;11.33;5.00;;;16.70;99.90;;;;;;5083808;28;20454;-84
2021/08/04 02:36:32;;;;;;;9.37;5.03;;;16.70;99.90;;;;;;5083704;28;20473;-85
2021/08/04 02:39:01;;;;;;;12.37;5.40;;;16.70;99.90;;;;;;5084093;28;20450;-83
2021/08/04 02:41:29;;;;;;;11.40;5.37;;;16.70;99.90;;;;;;5082881;28;20503;-83
2021/08/04 02:43:56;;;;;;;11.87;6.87;;;16.70;99.90;;;;;;5083734;28;20455;-84
2021/08/04 02:46:24;;;;;;;10.30;5.20;;;16.70;99.90;;;;;;5081991;28;20496;-85
2021/08/04 02:48:52;;;;;;;12.37;5.50;;;16.70;99.90;;;;;;5081962;28;20453;-84
2021/08/04 02:51:23;;;;;;;9.90;5.40;;;16.60;99.90;;;;;;5081752;28;20462;-83
2021/08/04 02:53:55;;;;;;;12.80;5.87;;;16.60;99.90;;;;;;5081091;28;20507;-83
2021/08/04 02:56:22;;;;;;;10.00;5.20;;;16.60;99.90;;;;;;5081349;28;20451;-83
2021/08/04 02:58:48;;;;;;;12.57;5.53;;;16.60;99.90;;;;;;5080865;28;20460;-85
2021/08/04 03:01:15;;;;;;;11.40;6.60;;;16.50;99.90;;;;;;5082099;28;20862;-82
2021/08/04 03:03:42;;;;;;;11.37;6.10;;;16.50;99.90;;;;;;5082029;28;20894;-83
2021/08/04 03:06:10;;;;;;;11.93;5.73;;;16.50;99.90;;;;;;5081823;28;20505;-85
2021/08/04 03:08:38;;;;;;;9.90;5.13;;;16.40;99.90;;;;;;5081561;28;20537;-85
2021/08/04 03:11:04;;;;;;;10.60;5.37;;;16.40;99.90;;;;;;5081238;28;20443;-83
2021/08/04 03:13:31;;;;;;;10.80;5.30;;;16.40;99.90;;;;;;5086307;28;20457;-83
2021/08/04 03:15:58;;;;;;;10.47;5.70;;;16.40;99.90;;;;;;5101773;28;20438;-83
2021/08/04 03:18:25;;;;;;;10.40;5.17;;;16.40;99.90;;;;;;5102171;28;20987;-82
2021/08/04 03:20:52;;;;;;;10.87;6.30;;;16.40;99.90;;;;;;5101479;28;20941;-82
2021/08/04 03:23:20;;;;;;;11.40;5.73;;;16.40;99.90;;;;;;5098743;28;20481;-82
2021/08/04 03:25:47;;;;;;;11.37;5.97;;;16.40;99.90;;;;;;5081098;28;20442;-84
2021/08/04 03:28:17;;;;;;;12.20;6.60;;;16.40;99.90;;;;;;5081669;28;20534;-84
2021/08/04 03:30:43;;;;;;;13.57;6.70;;;16.40;99.90;;;;;;5082869;28;21133;-83
2021/08/04 03:33:10;;;;;;;10.10;6.07;;;16.40;99.90;;;;;;5083477;28;20447;-84
2021/08/04 03:35:37;;;;;;;10.90;6.33;;;16.40;99.90;;;;;;5082756;28;20516;-83
2021/08/04 03:38:04;;;;;;;15.73;6.30;;;16.40;99.90;;;;;;5084112;28;20474;-84
2021/08/04 03:40:32;;;;;;;11.00;6.20;;;16.40;99.90;;;;;;5083514;28;20511;-81
2021/08/04 03:42:59;;;;;;;11.17;6.40;;;16.30;99.90;;;;;;5083403;28;20447;-83
2021/08/04 03:45:27;;;;;;;11.50;7.07;;;16.30;99.90;;;;;;5083545;28;20468;-83
2021/08/04 03:47:54;;;;;;;13.20;6.70;;;16.30;99.90;;;;;;5082518;28;21024;-85
2021/08/04 03:50:21;;;;;;;11.77;6.80;;;16.30;99.90;;;;;;5083228;28;20483;-85
2021/08/04 03:52:48;;;;;;;14.33;6.97;;;16.30;99.90;;;;;;5082984;28;20459;-85
2021/08/04 03:55:15;;;;;;;13.80;6.00;;;16.30;99.90;;;;;;5100008;28;20456;-82
2021/08/04 03:57:43;;;;;;;13.33;6.90;;;16.30;99.90;;;;;;5102124;28;20485;-83
2021/08/04 04:00:11;;;;;;;11.23;6.17;;;16.30;99.90;;;;;;5102911;28;20477;-82
2021/08/04 04:02:38;;;;;;;13.63;7.47;;;16.20;99.90;;;;;;5103175;28;20449;-82
2021/08/04 04:05:07;;;;;;;12.37;7.20;;;16.20;99.90;;;;;;5085860;28;20450;-82
2021/08/04 04:07:34;;;;;;;14.70;6.90;;;16.20;99.90;;;;;;5082731;28;20486;-82
2021/08/04 04:10:01;;;;;;;11.77;7.17;;;16.20;99.90;;;;;;5082822;28;20461;-82
2021/08/04 04:12:29;;;;;;;12.20;6.90;;;16.10;99.90;;;;;;5081306;28;20447;-81
2021/08/04 04:14:57;;;;;;;11.80;6.83;;;16.10;99.90;;;;;;5096392;28;20460;-82
2021/08/04 04:17:24;;;;;;;11.23;7.00;;;16.10;99.90;;;;;;5102029;28;20474;-82
2021/08/04 04:19:51;;;;;;;12.37;7.03;;;16.10;99.90;;;;;;5098471;28;20814;-82
2021/08/04 04:22:18;;;;;;;11.10;7.10;;;16.10;99.90;;;;;;5082318;28;20471;-83
2021/08/04 04:24:44;;;;;;;13.37;7.00;;;16.10;99.90;;;;;;5081043;28;20518;-83
2021/08/04 04:27:11;;;;;;;14.33;8.17;;;16.10;99.90;;;;;;5081579;28;20485;-82
2021/08/04 04:29:38;;;;;;;12.40;6.90;;;16.10;99.90;;;;;;5081871;28;20540;-82
2021/08/04 04:32:08;;;;;;;11.70;7.07;;;16.10;99.90;;;;;;5081541;28;20454;-82
2021/08/04 04:34:36;;;;;;;11.87;6.67;;;16.10;99.90;;;;;;5092560;28;20452;-82
2021/08/04 04:37:02;;;;;;;12.57;6.17;;;16.10;99.90;;;;;;5104755;28;20460;-81
2021/08/04 04:39:29;;;;;;;11.90;7.23;;;16.10;99.90;;;;;;5128452;28;20460;-81
2021/08/04 04:41:56;;;;;;;12.80;7.30;;;16.10;99.90;;;;;;5127110;28;20445;-81
2021/08/04 04:44:23;;;;;;;14.33;8.63;;;16.10;99.90;;;;;;5117412;28;20475;-82
2021/08/04 04:46:50;;;;;;;15.20;7.37;;;16.10;99.90;;;;;;5122067;22;20495;-87
2021/08/04 04:49:18;;;;;;;12.40;6.57;;;16.00;99.90;;;;;;5061688;28;20452;-85
2021/08/04 04:51:45;;;;;;;12.47;7.27;;;16.10;99.90;;;;;;5061487;28;20506;-85
2021/08/04 04:54:11;;;;;;;13.83;6.30;;;16.10;99.90;;;;;;5074077;28;20454;-85
2021/08/04 04:56:38;;;;;;;12.07;6.40;;;16.10;99.90;;;;;;5086482;28;20854;-86
2021/08/04 04:59:05;;;;;;;11.80;7.00;;;16.10;99.90;;;;;;5086574;28;20453;-86
2021/08/04 05:01:32;;;;;;;12.80;7.43;;;16.20;99.90;;;;;;5072460;28;20881;-85
2021/08/04 05:03:59;;;;;;;11.80;7.23;;;16.20;99.90;;;;;;5065676;28;20568;-86
2021/08/04 05:06:27;;;;;;;11.57;7.20;;;16.30;99.90;;;;;;5057633;28;20444;-87
2021/08/04 05:08:54;;;;;;;13.30;7.60;;;16.40;99.90;;;;;;5058633;28;20458;-86
2021/08/04 05:11:22;;;;;;;12.97;8.20;;;16.40;99.90;;;;;;5058014;28;20519;-87
2021/08/04 05:13:48;;;;;;;12.67;7.80;;;16.50;99.90;;;;;;5062106;28;20464;-86
2021/08/04 05:16:15;;;;;;;13.50;7.97;;;16.60;99.90;;;;;;5057561;28;20466;-86
2021/08/04 05:18:42;;;;;;;12.50;8.30;;;16.60;99.90;;;;;;5061068;28;20531;-87
2021/08/04 05:21:09;;;;;;;12.70;8.30;;;16.70;99.90;;;;;;5058981;28;20523;-86
2021/08/04 05:23:37;;;;;;;12.70;8.40;;;16.80;99.90;;;;;;5058192;28;20481;-86
2021/08/04 05:26:06;;;;;;;14.20;9.73;;;16.80;99.90;;;;;;5058050;28;20515;-87
2021/08/04 05:28:33;;;;;;;13.20;8.00;;;16.80;99.90;;;;;;5055222;28;20567;-86
2021/08/04 05:31:00;;;;;;;18.30;8.60;;;16.90;99.90;;;;;;5053824;28;22151;-86
2021/08/04 05:33:26;;;;;;;14.37;9.57;;;17.10;99.90;;;;;;5057768;28;20509;-86
2021/08/04 05:35:53;;;;;;;14.77;8.80;;;17.20;99.90;;;;;;5067312;28;20543;-86
2021/08/04 05:38:20;;;;;;;14.40;7.83;;;17.20;99.90;;;;;;5067432;28;20987;-86
2021/08/04 05:40:48;;;;;;;15.20;9.80;;;17.30;99.90;;;;;;5066087;28;20550;-86
2021/08/04 05:43:15;;;;;;;13.10;8.20;;;17.30;99.90;;;;;;5066544;28;20458;-86
2021/08/04 05:45:42;;;;;;;14.70;8.83;;;17.40;99.90;;;;;;5082793;28;20457;-86
2021/08/04 05:48:09;;;;;;;15.60;10.40;;;17.50;99.90;;;;;;5081099;28;20612;-85
2021/08/04 05:50:36;;;;;;;16.00;10.00;;;17.60;99.90;;;;;;5080377;28;20535;-84
2021/08/04 05:53:03;;;;;;;15.27;10.30;;;17.60;99.90;;;;;;5071971;28;20448;-84
2021/08/04 05:55:30;;;;;;;17.27;10.40;;;17.50;99.90;;;;;;5055183;28;20896;-85
2021/08/04 05:57:58;;;;;;;16.80;9.50;;;17.60;99.90;;;;;;5055162;28;20469;-84
2021/08/04 06:00:25;;;;;;;15.03;9.07;;;17.60;99.90;;;;;;5056031;28;20460;-85
2021/08/04 06:02:52;;;;;;;17.10;10.67;;;17.70;99.90;;;;;;5056502;28;20464;-84
2021/08/04 06:05:18;;;;;;;16.70;10.37;;;17.60;99.90;;;;;;5059301;28;20457;-85
2021/08/04 06:07:45;;;;;;;18.57;10.00;;;17.60;99.90;;;;;;5045570;28;20490;-85
2021/08/04 06:10:12;;;;;;;16.77;10.73;;;17.80;99.90;;;;;;5042590;28;20451;-85
2021/08/04 06:12:39;;;;;;;15.70;11.43;;;17.90;99.90;;;;;;5049306;28;20457;-85
2021/08/04 06:15:08;;;;;;;17.83;10.47;;;17.90;99.90;;;;;;5060463;28;20454;-85
2021/08/04 06:17:35;;;;;;;15.40;10.57;;;18.00;99.90;;;;;;5054327;28;21027;-85
2021/08/04 06:20:02;;;;;;;15.27;10.63;;;18.10;99.90;;;;;;5053575;28;20533;-84
2021/08/04 06:22:28;;;;;;;15.20;10.07;;;18.20;99.90;;;;;;5055778;28;20456;-86
2021/08/04 06:24:55;;;;;;;16.43;10.60;;;18.30;99.90;;;;;;5057338;28;20459;-85
2021/08/04 06:27:23;;;;;;;17.30;9.60;;;18.20;99.90;;;;;;5054689;28;20495;-85
2021/08/04 06:29:50;;;;;;;14.63;8.93;;;18.40;99.90;;;;;;5053879;28;20954;-84
2021/08/04 06:32:18;;;;;;;13.60;7.57;;;18.50;99.90;;;;;;5056505;28;20834;-85
2021/08/04 06:34:45;;;;;;;13.20;7.60;;;18.60;99.90;;;;;;5059704;28;20542;-85
2021/08/04 06:37:11;;;;;;;17.00;8.50;;;18.70;99.90;;;;;;5058156;28;20471;-85
2021/08/04 06:39:38;;;;;;;13.23;7.53;;;18.60;99.90;;;;;;5054132;28;20462;-85
2021/08/04 06:42:05;;;;;;;14.10;8.10;;;18.70;99.90;;;;;;5053947;28;20457;-86
2021/08/04 06:44:32;;;;;;;14.00;7.50;;;18.80;99.90;;;;;;5054082;28;20477;-86
2021/08/04 06:46:59;;;;;;;13.33;8.10;;;18.80;99.90;;;;;;5054987;28;20482;-85
2021/08/04 06:49:28;;;;;;;13.63;6.83;;;18.80;99.90;;;;;;5054214;28;20445;-85
2021/08/04 06:51:56;;;;;;;13.13;8.70;;;18.90;99.90;;;;;;5054063;28;20451;-85
2021/08/04 06:54:23;;;;;;;14.10;7.37;;;19.00;99.90;;;;;;5059707;28;20481;-87
2021/08/04 06:56:50;;;;;;;13.30;6.00;;;19.00;99.90;;;;;;5073459;28;20529;-86
2021/08/04 06:59:17;;;;;;;15.37;9.03;;;19.00;99.90;;;;;;5072998;28;20791;-87
2021/08/04 07:01:45;;;;;;;15.17;8.43;;;18.90;99.90;;;;;;5083179;28;20447;-86
2021/08/04 07:04:13;;;;;;;18.30;7.80;;;18.80;99.90;;;;;;5094025;28;20437;-84
2021/08/04 07:06:51;;;;;;;12.03;6.60;;;18.90;99.90;;;;;;5097240;28;20484;-87
2021/08/04 07:09:18;;;;;;;14.60;7.40;;;19.00;99.90;;;;;;5083937;28;20557;-86
2021/08/04 07:11:45;;;;;;;12.70;7.17;;;19.00;99.90;;;;;;5073111;28;20447;-87
2021/08/04 07:14:12;;;;;;;17.00;7.20;;;19.00;99.90;;;;;;5072283;28;20837;-87
2021/08/04 07:16:39;;;;;;;13.93;7.87;;;19.10;99.90;;;;;;5073605;28;20562;-86
2021/08/04 07:19:06;;;;;;;17.27;6.70;;;19.10;99.90;;;;;;5072376;28;20451;-87
2021/08/04 07:21:32;;;;;;;15.20;6.87;;;19.20;99.90;;;;;;5072855;28;20493;-87
2021/08/04 07:24:01;;;;;;;17.80;7.23;;;19.20;99.90;;;;;;5073156;28;20451;-85
2021/08/04 07:26:27;;;;;;;13.77;7.30;;;19.30;99.90;;;;;;5073526;28;20454;-86
2021/08/04 07:28:56;;;;;;;12.77;6.80;;;19.40;99.90;;;;;;5072521;28;20478;-85
2021/08/04 07:31:23;;;;;;;14.93;7.47;;;19.50;99.90;;;;;;5072846;28;20450;-86
2021/08/04 07:33:50;;;;;;;14.07;7.77;;;19.50;99.90;;;;;;5072146;28;20450;-86
2021/08/04 07:36:18;;;;;;;16.73;9.10;;;19.60;99.90;;;;;;5053464;28;20458;-84
2021/08/04 07:38:45;;;;;;;14.70;8.60;;;19.50;99.90;;;;;;5053664;28;20443;-86
2021/08/04 07:41:13;;;;;;;14.27;7.70;;;19.60;99.90;;;;;;5052560;28;20458;-86
2021/08/04 07:43:40;;;;;;;15.90;8.00;;;19.70;99.90;;;;;;5052981;28;20463;-87
2021/08/04 07:46:07;;;;;;;14.70;8.20;;;19.80;99.90;;;;;;5070740;28;20493;-86
2021/08/04 07:48:35;;;;;;;20.53;8.40;;;19.90;99.90;;;;;;5072369;28;20486;-85
2021/08/04 07:51:02;;;;;;;19.57;6.90;;;20.10;99.90;;;;;;5077004;28;20496;-86
2021/08/04 07:53:29;;;;;;;13.50;7.03;;;20.30;99.90;;;;;;5076539;28;20959;-85
2021/08/04 07:55:56;;;;;;;14.37;7.30;;;20.50;99.90;;;;;;5058868;28;20458;-86
2021/08/04 07:58:25;;;;;;;15.00;6.80;;;20.50;99.90;;;;;;5055468;28;20869;-85
2021/08/04 08:00:52;;;;;;;15.73;6.63;;;20.70;99.90;;;;;;5055118;28;20542;-86
2021/08/04 08:03:18;;;;;;;16.03;7.40;;;20.80;99.90;;;;;;5053909;28;20452;-86
2021/08/04 08:05:45;;;;;;;15.13;7.27;;;20.90;99.90;;;;;;5067852;28;20450;-86
2021/08/04 08:08:13;;;;;;;13.70;6.30;;;20.90;99.90;;;;;;5071987;28;20498;-87
2021/08/04 08:10:41;;;;;;;14.83;7.60;;;21.10;99.90;;;;;;5071951;28;20550;-86
2021/08/04 08:13:08;;;;;;;14.37;7.90;;;21.10;99.90;;;;;;5073005;28;20831;-86
2021/08/04 08:15:37;;;;;;;16.40;9.47;;;21.10;99.90;;;;;;5071931;28;20530;-86
2021/08/04 08:18:07;;;;;;;15.50;7.63;;;20.80;99.90;;;;;;5071982;28;20500;-87
2021/08/04 08:20:34;;;;;;;20.33;7.60;;;20.70;99.90;;;;;;5071790;28;20450;-87
2021/08/04 08:23:01;;;;;;;12.77;6.10;;;20.90;99.90;;;;;;5072780;28;20973;-86
2021/08/04 08:25:28;;;;;;;15.23;7.50;;;21.10;99.90;;;;;;5059324;28;20454;-86
2021/08/04 08:27:55;;;;;;;17.20;8.10;;;21.20;99.90;;;;;;5051689;28;20483;-86
2021/08/04 08:30:23;;;;;;;16.77;6.80;;;21.30;99.90;;;;;;5052409;28;20830;-86
2021/08/04 08:32:51;;;;;;;14.20;6.10;;;21.30;99.90;;;;;;5054187;28;20462;-87
2021/08/04 08:35:18;;;;;;;16.10;6.40;;;21.50;99.90;;;;;;5052196;28;20456;-86
2021/08/04 08:37:46;;;;;;;16.53;5.97;;;21.50;99.90;;;;;;5051268;28;20464;-86
2021/08/04 08:40:14;;;;;;;15.43;6.00;;;21.60;99.90;;;;;;5059244;28;20451;-86
2021/08/04 08:42:42;;;;;;;15.40;7.30;;;21.60;99.90;;;;;;5071930;28;20451;-85
2021/08/04 08:45:11;;;;;;;15.40;7.37;;;21.60;99.90;;;;;;5071237;28;20462;-85
2021/08/04 08:47:40;;;;;;;19.47;6.93;;;21.40;99.90;;;;;;5071418;28;20490;-85
2021/08/04 08:50:10;;;;;;;15.13;6.40;;;21.40;99.90;;;;;;5072959;28;21017;-84
2021/08/04 08:52:37;;;;;;;14.90;6.30;;;21.40;99.90;;;;;;5073479;28;20455;-85
2021/08/04 08:55:06;;;;;;;14.97;7.47;;;21.40;99.90;;;;;;5065323;28;20456;-86
2021/08/04 08:57:33;;;;;;;15.20;6.83;;;21.50;99.90;;;;;;5053019;28;20649;-84
2021/08/04 09:00:00;;;;;;;16.63;7.50;;;21.90;99.90;;;;;;5054866;28;20972;-83
2021/08/04 09:02:28;;;;;;;15.30;6.43;;;22.30;99.90;;;;;;5053517;28;20444;-86
2021/08/04 09:04:59;;;;;;;14.10;6.20;;;22.50;99.90;;;;;;5057741;28;20813;-85
2021/08/04 09:07:43;;;;;;;17.97;5.90;;;22.90;99.90;;;;;;5071314;28;20474;-85
2021/08/04 09:10:27;;;;;;;14.00;5.07;;;23.10;99.90;;;;;;5070392;28;20514;-84
2021/08/04 09:12:56;;;;;;;17.27;5.73;;;23.10;99.90;;;;;;5071378;28;20966;-85
2021/08/04 09:15:29;;;;;;;13.30;4.90;;;23.30;99.90;;;;;;5060127;28;21089;-85
2021/08/04 09:18:05;;;;;;;15.50;5.70;;;23.30;99.90;;;;;;5051107;28;20496;-86
2021/08/04 09:20:42;;;;;;;15.23;4.33;;;23.40;99.90;;;;;;5050969;28;20534;-85
2021/08/04 09:23:14;;;;;;;17.87;5.37;;;23.50;99.90;;;;;;5058314;28;20958;-86
2021/08/04 09:25:41;;;;;;;14.70;4.70;;;23.60;99.90;;;;;;5074365;28;20939;-86
2021/08/04 09:28:09;;;;;;;15.87;4.63;;;23.40;99.90;;;;;;5074771;28;20498;-86
2021/08/04 09:30:37;;;;;;;15.63;4.47;;;23.10;99.90;;;;;;5075919;28;20459;-84
2021/08/04 09:33:16;;;;;;;14.50;5.00;;;22.90;99.90;;;;;;5080695;28;20454;-85
2021/08/04 09:35:49;;;;;;;16.70;5.70;;;22.80;99.90;;;;;;5070509;28;20452;-84
2021/08/04 09:38:19;;;;;;;15.27;5.60;;;22.80;99.90;;;;;;5064016;28;20562;-85
2021/08/04 09:40:46;;;;;;;13.93;5.30;;;23.00;99.90;;;;;;5071680;28;20447;-85
2021/08/04 09:43:23;;;;;;;17.43;7.23;;;23.40;99.90;;;;;;5081724;28;20446;-86
2021/08/04 09:45:51;;;;;;;14.87;6.97;;;23.70;99.90;;;;;;5073643;28;20434;-85
2021/08/04 09:48:25;;;;;;;15.57;6.97;;;24.10;99.90;;;;;;5074048;28;20488;-85
2021/08/04 09:50:55;;;;;;;16.17;5.20;;;24.50;99.90;;;;;;5072830;28;20466;-85
2021/08/04 09:53:25;;;;;;;14.07;5.10;;;24.70;99.90;;;;;;5063073;28;20468;-85
2021/08/04 09:56:10;;;;;;;16.27;4.00;;;25.00;99.90;;;;;;5064890;28;20450;-85
2021/08/04 09:58:38;;;;;;;19.30;4.00;;;25.20;99.90;;;;;;5045553;28;20461;-84
2021/08/04 10:01:06;;;;;;;23.10;4.13;;;25.20;99.90;;;;;;5044070;28;20463;-85
2021/08/04 10:03:34;;;;;;;26.60;3.93;;;25.40;99.90;;;;;;5041917;28;20834;-85
2021/08/04 10:06:01;;;;;;;45.53;4.77;;;25.60;99.90;;;;;;5044810;28;20453;-84
2021/08/04 10:08:30;;;;;;;27.27;5.00;;;25.80;99.90;;;;;;5072978;28;20554;-83
2021/08/04 10:10:58;;;;;;;30.23;4.77;;;25.80;99.90;;;;;;5076329;28;20458;-82
2021/08/04 10:13:28;;;;;;;45.10;6.50;;;25.90;99.90;;;;;;5075704;28;20512;-83
2021/08/04 10:15:58;;;;;;;44.00;20.63;;;26.10;99.90;;;;;;5075988;28;20457;-83
2021/08/04 10:18:27;;;;;;;44.97;8.43;;;26.20;99.90;;;;;;5074553;28;20463;-83
2021/08/04 10:20:57;;;;;;;89.47;80.53;;;26.10;99.90;;;;;;5076539;28;20537;-83
2021/08/04 10:23:25;;;;;;;223.70;209.20;;;25.60;99.90;;;;;;5075079;28;20451;-83
2021/08/04 10:25:56;;;;;;;178.97;166.03;;;25.00;99.90;;;;;;5075009;28;20455;-83
2021/08/04 10:28:23;;;;;;;150.87;138.87;;;24.60;99.90;;;;;;5063053;28;21012;-82
2021/08/04 10:30:50;;;;;;;196.43;182.90;;;24.10;99.90;;;;;;5054930;28;20463;-83
2021/08/04 10:33:17;;;;;;;54.23;18.27;;;23.90;99.90;;;;;;5054549;28;20443;-83
2021/08/04 10:35:46;;;;;;;300.00;282.27;;;24.10;99.90;;;;;;5054413;28;20462;-83
2021/08/04 10:38:16;;;;;;;81.03;72.40;;;24.30;99.90;;;;;;5054271;28;20480;-83
2021/08/04 10:40:43;;;;;;;88.40;79.57;;;24.20;99.90;;;;;;5053846;28;20448;-83
2021/08/04 10:43:36;;;;;;;70.20;52.00;;;23.80;99.90;;;;;;5055594;28;20829;-83
2021/08/04 10:46:23;;;;;;;74.93;60.13;;;23.60;99.90;;;;;;5034740;28;20459;-83
2021/08/04 10:48:50;;;;;;;49.50;9.23;;;23.40;99.90;;;;;;5061092;28;20862;-83
2021/08/04 10:51:19;;;;;;;60.67;27.33;;;23.20;99.90;;;;;;5076671;28;20446;-86
2021/08/04 10:54:12;;;;;;;70.73;49.80;;;23.00;99.90;;;;;;5069902;28;20859;-83
2021/08/04 10:57:08;;;;;;;72.23;46.27;;;22.80;99.90;;;;;;5057190;28;20475;-83
2021/08/04 10:59:37;;;;;;;64.43;33.43;;;22.80;99.90;;;;;;5057354;28;20452;-84
2021/08/04 11:02:30;;;;;;;63.33;35.23;;;22.80;99.90;;;;;;5071563;28;20454;-84
2021/08/04 11:04:58;;;;;;;60.87;31.47;;;22.80;99.90;;;;;;5076950;28;20970;-84
2021/08/04 11:07:25;;;;;;;55.97;23.67;;;23.00;99.90;;;;;;5077230;28;20857;-83
2021/08/04 11:10:07;;;;;;;57.57;24.30;;;23.00;99.90;;;;;;5077100;28;20854;-84
2021/08/04 11:12:50;;;;;;;63.33;30.83;;;23.20;99.90;;;;;;5075046;28;20839;-84
2021/08/04 11:15:30;;;;;;;66.30;37.13;;;23.40;99.90;;;;;;5077168;28;20525;-84
2021/08/04 11:18:13;;;;;;;121.73;111.67;;;24.20;99.90;;;;;;5066399;28;20499;-83
2021/08/04 11:20:56;;;;;;;584.77;552.40;;;25.30;99.90;;;;;;5055541;28;20447;-83
2021/08/04 11:23:45;;;;;;;1999.90;999.90;;;26.00;99.90;;;;;;5057411;28;20447;-84
2021/08/04 11:26:26;;;;;;;1388.10;716.33;;;26.60;99.90;;;;;;5056803;28;20447;-84
2021/08/04 11:28:54;;;;;;;384.87;361.33;;;26.90;99.90;;;;;;5070507;28;20489;-84
2021/08/04 11:31:25;;;;;;;1999.90;999.90;;;27.30;99.90;;;;;;5076847;28;20537;-84
2021/08/04 11:33:53;;;;;;;1999.90;999.90;;;27.80;99.90;;;;;;5075458;28;20454;-84
2021/08/04 11:36:26;;;;;;;1999.90;999.90;;;27.90;99.90;;;;;;5056648;28;20888;-85
2021/08/04 11:38:56;;;;;;;1396.20;724.00;;;28.00;99.90;;;;;;5054902;28;20444;-84
2021/08/04 11:41:35;;;;;;;1999.90;999.90;;;28.30;99.90;;;;;;5054712;28;20448;-83
2021/08/04 11:44:19;;;;;;;1999.90;999.90;;;28.60;99.90;;;;;;5054470;28;20452;-84
2021/08/04 11:46:49;;;;;;;1999.90;999.90;;;28.80;99.90;;;;;;5052966;28;20490;-85
2021/08/04 11:49:19;;;;;;;1999.90;999.90;;;29.10;99.90;;;;;;5062914;28;20502;-85
2021/08/04 11:51:52;;;;;;;1999.90;999.90;;;28.70;99.90;;;;;;5072689;28;20454;-84
2021/08/04 11:54:40;;;;;;;1999.90;999.90;;;28.60;99.90;;;;;;5067453;28;20939;-84
2021/08/04 11:57:10;;;;;;;1999.90;999.90;;;28.60;99.90;;;;;;5055774;28;20992;-83
2021/08/04 11:59:49;;;;;;;1999.90;999.90;;;28.90;99.90;;;;;;5054801;28;20474;-83
2021/08/04 12:02:17;;;;;;;1999.90;999.90;;;29.00;99.90;;;;;;5058002;28;20460;-83
2021/08/04 12:04:49;;;;;;;1999.90;999.90;;;28.70;99.90;;;;;;5056550;28;20454;-84
2021/08/04 12:07:17;;;;;;;1999.90;999.90;;;28.70;99.90;;;;;;5063009;28;20846;-84
2021/08/04 12:09:44;;;;;;;1999.90;999.90;;;28.40;99.90;;;;;;5077712;28;20483;-84
2021/08/04 12:12:17;;;;;;;1999.90;999.90;;;29.00;99.90;;;;;;5077456;28;20489;-84
2021/08/04 12:14:44;;;;;;;1999.90;999.90;;;29.40;99.90;;;;;;5077548;28;20443;-84
2021/08/04 12:17:11;;;;;;;1999.90;999.90;;;29.90;99.90;;;;;;5076984;28;20575;-83
2021/08/04 12:19:42;;;;;;;1999.90;999.90;;;30.20;99.90;;;;;;5077061;28;20471;-83
2021/08/04 12:22:22;;;;;;;1999.90;999.90;;;30.30;99.90;;;;;;5079344;28;20469;-83
2021/08/04 12:24:55;;;;;;;1999.90;999.90;;;30.30;99.90;;;;;;5068751;28;20459;-83
2021/08/04 12:27:34;;;;;;;1999.90;999.90;;;30.50;99.90;;;;;;5038367;28;20472;-82
2021/08/04 12:30:08;;;;;;;1999.90;999.90;;;30.60;99.90;;;;;;5039957;28;20490;-82
2021/08/04 12:32:47;;;;;;;1999.90;999.90;;;30.40;99.90;;;;;;5046687;28;20448;-83
2021/08/04 12:35:18;;;;;;;1999.90;999.90;;;30.40;99.90;;;;;;5045991;28;20452;-82
2021/08/04 12:37:45;;;;;;;1999.90;999.90;;;30.30;99.90;;;;;;5041111;28;21031;-84
2021/08/04 12:40:15;;;;;;;1999.90;999.90;;;30.00;99.90;;;;;;5036670;28;21062;-83
2021/08/04 12:42:42;;;;;;;1999.90;999.90;;;29.90;99.90;;;;;;5075608;28;20443;-84